Time;durP1;ratioP1;P1;durP2;ratioP2;P2;SDS_P1;SDS_P2;PMS_P1;PMS_P2;Temp;Humidity;BMP_temperature;BMP_pressure;BME280_temperature;BME280_humidity;BME280_pressure;Samples;Min_cycle;Max_cycle;Signal;HPM_P1;HPM_P2
2022/08/17 00:00:54;;;;;;;11.35;10.85;;;;;;;23.36;100.00;99998.28;5053022;28;20121;-67
2022/08/17 00:03:21;;;;;;;11.35;10.85;;;;;;;23.32;100.00;100009.91;5059521;28;20503;-67
2022/08/17 00:06:00;;;;;;;11.10;10.60;;;;;;;23.25;100.00;100014.78;5051463;28;20544;-66
2022/08/17 00:08:30;;;;;;;11.43;10.93;;;;;;;23.29;100.00;100013.97;5051820;28;20021;-66
2022/08/17 00:10:56;;;;;;;11.60;11.10;;;;;;;23.30;100.00;100009.38;5051615;28;20021;-66
2022/08/17 00:13:26;;;;;;;11.15;10.65;;;;;;;23.23;100.00;100014.25;5048745;28;20025;-67
2022/08/17 00:15:58;;;;;;;11.40;10.90;;;;;;;23.21;100.00;100010.97;5066927;28;20777;-67
2022/08/17 00:18:26;;;;;;;11.55;11.05;;;;;;;23.20;100.00;100007.47;5058237;28;20115;-67
2022/08/17 00:20:53;;;;;;;11.40;10.90;;;;;;;23.21;100.00;100010.97;5055589;28;20471;-67
2022/08/17 00:23:19;;;;;;;11.35;10.85;;;;;;;22.91;100.00;100006.34;5051384;28;20484;-67
2022/08/17 00:25:45;;;;;;;11.50;11.00;;;;;;;22.48;100.00;100017.34;5051497;28;20032;-68
2022/08/17 00:28:14;;;;;;;11.60;11.10;;;;;;;22.73;100.00;100022.00;5051640;28;20112;-67
2022/08/17 00:30:40;;;;;;;12.07;11.48;;;;;;;22.71;100.00;100016.06;5051385;28;20389;-67
2022/08/17 00:33:11;;;;;;;11.80;11.30;;;;;;;22.70;100.00;100010.91;5051513;28;20032;-66
2022/08/17 00:35:39;;;;;;;11.68;11.18;;;;;;;22.75;100.00;100011.72;5051605;28;20103;-67
2022/08/17 00:38:08;;;;;;;11.63;11.13;;;;;;;22.60;100.00;100008.97;5053573;28;20392;-67
2022/08/17 00:40:39;;;;;;;11.82;11.32;;;;;;;22.79;100.00;100001.19;5053067;28;20049;-67
2022/08/17 00:43:19;;;;;;;11.27;10.77;;;;;;;22.53;100.00;100013.81;5055802;28;20020;-67
2022/08/17 00:45:46;;;;;;;12.30;11.70;;;;;;;22.36;100.00;100014.06;5055038;28;20118;-65
2022/08/17 00:48:12;;;;;;;11.60;11.10;;;;;;;22.22;100.00;100016.44;5055367;28;20024;-67
2022/08/17 00:50:42;;;;;;;11.65;11.15;;;;;;;22.20;100.00;100021.28;5055282;28;20078;-67
2022/08/17 00:53:07;;;;;;;11.40;10.90;;;;;;;22.18;100.00;100022.59;5055189;28;20052;-67
2022/08/17 00:55:34;;;;;;;11.82;11.32;;;;;;;22.59;100.00;100016.28;5051310;28;20488;-66
2022/08/17 00:58:04;;;;;;;11.48;10.98;;;;;;;22.72;100.00;100025.78;5054939;28;20040;-66
2022/08/17 01:00:38;;;;;;;11.80;11.30;;;;;;;22.84;100.00;100020.94;5055095;28;20063;-66
2022/08/17 01:03:12;;;;;;;11.32;10.82;;;;;;;22.60;100.00;100017.91;5055006;28;20060;-67
2022/08/17 01:05:39;;;;;;;11.82;11.30;;;;;;;22.17;100.00;100024.50;5055044;28;20029;-67
2022/08/17 01:08:11;;;;;;;11.20;10.70;;;;;;;22.51;100.00;100021.41;5055099;28;20032;-66
2022/08/17 01:10:43;;;;;;;12.00;11.40;;;;;;;22.60;100.00;100020.59;5053844;28;20065;-68
2022/08/17 01:13:11;;;;;;;11.52;11.02;;;;;;;22.66;100.00;100017.91;5054867;28;20028;-67
2022/08/17 01:15:41;;;;;;;11.82;11.27;;;;;;;22.55;100.00;100012.50;5054439;28;20085;-66
2022/08/17 01:18:10;;;;;;;11.43;10.93;;;;;;;22.62;100.00;100014.94;5053499;28;20492;-67
2022/08/17 01:20:40;;;;;;;11.90;11.40;;;;;;;22.51;100.00;100013.28;5056695;28;20032;-67
2022/08/17 01:23:06;;;;;;;11.40;10.90;;;;;;;22.73;100.00;100021.19;5064480;28;20152;-66
2022/08/17 01:25:32;;;;;;;11.40;10.90;;;;;;;22.61;100.00;100030.34;5054541;28;20059;-65
2022/08/17 01:27:57;;;;;;;11.73;11.20;;;;;;;22.75;100.00;100027.94;5057404;28;20071;-66
2022/08/17 01:30:23;;;;;;;11.68;11.18;;;;;;;22.82;100.00;100024.97;5057399;28;20106;-67
2022/08/17 01:32:48;;;;;;;11.30;10.80;;;;;;;22.77;100.00;100017.69;5054388;28;20074;-66
2022/08/17 01:35:14;;;;;;;11.50;11.00;;;;;;;22.85;100.00;100011.78;5054329;28;20025;-67
2022/08/17 01:37:41;;;;;;;11.48;10.98;;;;;;;22.78;100.00;100019.31;5054389;28;20162;-66
2022/08/17 01:40:25;;;;;;;11.20;10.70;;;;;;;23.00;100.00;100008.28;5054458;28;20013;-67
2022/08/17 01:42:50;;;;;;;11.27;10.77;;;;;;;22.95;100.00;100007.47;5054357;28;20488;-67
2022/08/17 01:45:24;;;;;;;11.45;10.95;;;;;;;22.59;100.00;100007.34;5054857;28;20079;-67
2022/08/17 01:47:51;;;;;;;11.32;10.82;;;;;;;22.26;100.00;100011.31;5041088;28;20605;-67
2022/08/17 01:50:20;;;;;;;11.65;11.15;;;;;;;22.15;100.00;100017.75;5054143;28;20111;-67
2022/08/17 01:52:49;;;;;;;11.35;10.85;;;;;;;22.17;100.00;100005.59;5052709;28;20057;-67
2022/08/17 01:55:19;;;;;;;11.80;11.30;;;;;;;22.09;100.00;100016.09;5048081;28;20021;-67
2022/08/17 01:57:46;;;;;;;11.55;11.05;;;;;;;22.15;100.00;100007.75;5052379;28;20094;-67
2022/08/17 02:00:12;;;;;;;11.38;10.88;;;;;;;22.21;100.00;100009.41;5053999;28;20017;-67
2022/08/17 02:02:39;;;;;;;12.00;11.40;;;;;;;22.47;100.00;100004.06;5055018;28;20028;-67
2022/08/17 02:05:06;;;;;;;11.40;10.90;;;;;;;22.38;100.00;99997.56;5053740;28;20024;-67
2022/08/17 02:07:31;;;;;;;11.40;10.90;;;;;;;22.55;100.00;99990.88;5053780;28;20025;-67
2022/08/17 02:09:57;;;;;;;11.90;11.32;;;;;;;22.36;100.00;99988.91;5040191;28;20538;-67
2022/08/17 02:12:23;;;;;;;13.70;13.00;;;;;;;22.37;100.00;99996.75;5052280;28;20456;-67
2022/08/17 02:14:50;;;;;;;11.40;10.90;;;;;;;22.42;100.00;99993.25;5053581;28;20024;-67
2022/08/17 02:17:15;;;;;;;11.75;11.25;;;;;;;22.28;100.00;99996.47;5053734;28;20059;-67
2022/08/17 02:19:41;;;;;;;11.65;11.15;;;;;;;22.21;100.00;99993.19;5054289;28;20474;-67
2022/08/17 02:22:07;;;;;;;11.52;11.02;;;;;;;22.27;100.00;99996.72;5053137;28;20571;-67
2022/08/17 02:24:35;;;;;;;12.02;11.43;;;;;;;22.34;100.00;99990.00;5053537;28;20074;-67
2022/08/17 02:27:02;;;;;;;11.50;11.00;;;;;;;22.26;100.00;99990.50;5053586;28;20032;-67
2022/08/17 02:29:27;;;;;;;11.48;10.98;;;;;;;22.36;100.00;99986.22;5053326;28;20472;-66
2022/08/17 02:31:53;;;;;;;11.77;11.27;;;;;;;22.42;100.00;99985.97;5052828;28;20044;-67
2022/08/17 02:34:18;;;;;;;11.65;11.15;;;;;;;22.45;100.00;99985.41;5053303;28;20390;-65
2022/08/17 02:36:44;;;;;;;11.70;11.20;;;;;;;22.35;100.00;99996.22;5057383;28;20040;-67
2022/08/17 02:39:11;;;;;;;11.43;10.93;;;;;;;22.22;100.00;100002.09;5061617;28;20063;-67
2022/08/17 02:41:38;;;;;;;11.60;11.10;;;;;;;22.31;100.00;100006.72;5053110;28;20028;-67
2022/08/17 02:44:05;;;;;;;11.73;11.23;;;;;;;22.33;100.00;100004.59;5052860;28;20067;-66
2022/08/17 02:46:31;;;;;;;11.80;11.23;;;;;;;22.33;100.00;100007.28;5053110;28;20025;-65
2022/08/17 02:48:57;;;;;;;11.60;11.10;;;;;;;22.43;100.00;100011.09;5052929;28;20032;-65
2022/08/17 02:51:22;;;;;;;11.95;11.40;;;;;;;22.54;100.00;100012.75;5052992;28;20025;-66
2022/08/17 02:53:48;;;;;;;12.27;11.68;;;;;;;22.66;100.00;100013.31;5059403;28;20096;-67
2022/08/17 02:56:14;;;;;;;12.13;11.52;;;;;;;22.60;100.00;100025.19;5052081;28;20028;-67
2022/08/17 02:58:39;;;;;;;11.55;11.05;;;;;;;22.51;100.00;100016.81;5052955;28;20040;-67
2022/08/17 03:01:06;;;;;;;11.73;11.23;;;;;;;22.39;100.00;100020.81;5052647;28;20021;-67
2022/08/17 03:03:33;;;;;;;12.07;11.48;;;;;;;22.41;100.00;100024.06;5052299;28;20024;-67
2022/08/17 03:05:58;;;;;;;11.80;11.30;;;;;;;22.50;100.00;100025.19;5052617;28;20396;-67
2022/08/17 03:08:24;;;;;;;11.60;11.10;;;;;;;22.36;100.00;100019.47;5052704;28;20029;-67
2022/08/17 03:10:50;;;;;;;11.68;11.18;;;;;;;22.43;100.00;100030.84;5059398;28;20025;-67
2022/08/17 03:13:15;;;;;;;11.73;11.23;;;;;;;22.40;100.00;100030.53;5051952;28;20017;-67
2022/08/17 03:15:44;;;;;;;11.63;11.13;;;;;;;22.21;100.00;100035.59;5052508;28;20024;-67
2022/08/17 03:18:11;;;;;;;12.25;11.65;;;;;;;22.27;100.00;100043.47;5052172;28;20190;-67
2022/08/17 03:20:38;;;;;;;11.65;11.15;;;;;;;22.23;100.00;100036.97;5052227;28;20028;-66
2022/08/17 03:23:03;;;;;;;11.40;10.90;;;;;;;22.49;100.00;100042.47;5052547;28;20029;-65
2022/08/17 03:25:33;;;;;;;11.77;11.27;;;;;;;22.63;100.00;100046.31;5052048;28;20029;-66
2022/08/17 03:27:58;;;;;;;14.40;13.60;;;;;;;22.58;100.00;100049.81;5057180;28;20024;-67
2022/08/17 03:30:26;;;;;;;11.73;11.23;;;;;;;22.61;100.00;100051.16;5051626;28;20099;-66
2022/08/17 03:32:55;;;;;;;11.52;11.02;;;;;;;22.69;100.00;100053.34;5052393;28;20387;-67
2022/08/17 03:35:24;;;;;;;11.60;11.10;;;;;;;22.69;100.00;100050.63;5052186;28;20396;-67
2022/08/17 03:37:50;;;;;;;11.52;11.02;;;;;;;22.73;100.00;100051.75;5052175;28;20036;-67
2022/08/17 03:40:16;;;;;;;11.60;11.10;;;;;;;22.76;100.00;100056.59;5038676;28;20025;-66
2022/08/17 03:42:42;;;;;;;12.05;11.45;;;;;;;22.78;100.00;100050.94;5052082;28;20027;-66
2022/08/17 03:45:13;;;;;;;11.40;10.90;;;;;;;22.78;100.00;100045.53;5052311;28;20135;-67
2022/08/17 03:58:49;;;;;;;12.20;11.60;;;;;;;23.47;100.00;100045.09;5049244;28;20400;-66
2022/08/17 04:01:16;;;;;;;11.43;10.93;;;;;;;23.65;100.00;100047.28;5052239;28;20067;-67
2022/08/17 04:03:42;;;;;;;11.57;11.07;;;;;;;23.24;100.00;100042.94;5051175;28;20098;-68
2022/08/17 04:06:08;;;;;;;11.55;11.05;;;;;;;23.19;100.00;100045.63;5051889;28;20381;-66
2022/08/17 04:08:33;;;;;;;11.98;11.38;;;;;;;23.82;100.00;100051.59;5051822;28;20064;-67
2022/08/17 04:10:59;;;;;;;11.77;11.27;;;;;;;23.19;100.00;100043.72;5050063;28;20025;-66
2022/08/17 04:13:26;;;;;;;13.40;12.70;;;;;;;23.34;100.00;100046.44;5051288;28;20048;-68
2022/08/17 04:15:52;;;;;;;12.25;11.65;;;;;;;23.86;100.00;100042.63;5066278;28;20033;-66
2022/08/17 04:18:18;;;;;;;11.93;11.43;;;;;;;24.47;100.00;100042.47;5057167;28;20099;-68
2022/08/17 04:20:43;;;;;;;12.52;11.93;;;;;;;25.99;100.00;100025.28;5054757;28;20512;-68
2022/08/17 04:23:12;;;;;;;11.50;11.00;;;;;;;27.36;100.00;100026.13;5051562;28;20035;-66
2022/08/17 04:25:44;;;;;;;11.32;10.82;;;;;;;26.45;100.00;100020.16;5051448;28;20054;-67
2022/08/17 04:28:09;;;;;;;12.13;11.52;;;;;;;28.44;100.00;100019.50;5051416;28;20040;-67
2022/08/17 04:30:37;;;;;;;11.45;10.95;;;;;;;30.53;100.00;100014.97;5051234;28;20024;-67
2022/08/17 04:33:09;;;;;;;11.40;10.90;;;;;;;31.36;100.00;100025.78;5050007;28;20032;-67
2022/08/17 04:35:40;;;;;;;12.52;11.93;;;;;;;28.16;100.00;100015.97;5050084;28;20139;-66
2022/08/17 04:38:07;;;;;;;11.82;11.32;;;;;;;26.58;100.00;100011.25;5053112;28;20522;-66
2022/08/17 04:43:20;;;;;;;10.95;10.45;;;;;;;27.99;100.00;100016.59;5049760;28;20040;-66
2022/08/17 04:45:53;;;;;;;11.60;11.10;;;;;;;28.69;100.00;100018.13;5049797;28;20052;-68
2022/08/17 04:48:19;;;;;;;11.63;11.13;;;;;;;26.96;100.00;100013.97;5049549;28;20032;-68
2022/08/17 04:50:47;;;;;;;11.10;10.60;;;;;;;27.22;100.00;100017.13;5066712;28;20025;-68
2022/08/17 04:53:13;;;;;;;11.55;11.05;;;;;;;26.66;100.00;100016.06;5050932;28;20033;-67
2022/08/17 04:55:39;;;;;;;12.13;11.52;;;;;;;26.53;100.00;100018.69;5066004;28;20032;-68
2022/08/17 04:58:06;;;;;;;11.70;11.20;;;;;;;26.47;100.00;100014.41;5051160;28;20029;-67
2022/08/17 05:00:32;;;;;;;11.48;10.98;;;;;;;26.51;100.00;100018.94;5048639;28;20439;-66
2022/08/17 05:02:57;;;;;;;11.50;11.00;;;;;;;31.41;100.00;100030.28;5051648;28;20029;-68
2022/08/17 05:05:27;;;;;;;11.70;11.20;;;;;;;33.24;100.00;100032.50;5051477;28;20067;-68
2022/08/17 05:07:55;;;;;;;11.85;11.35;;;;;;;33.28;100.00;100031.84;5051316;28;20047;-67
2022/08/17 05:10:26;;;;;;;11.05;10.55;;;;;;;33.50;100.00;100047.97;5051184;28;20025;-67
2022/08/17 05:12:58;;;;;;;11.63;11.13;;;;;;;34.34;100.00;100049.19;5049563;28;20048;-67
2022/08/17 05:15:25;;;;;;;11.07;10.57;;;;;;;34.58;100.00;100045.63;5051551;28;20507;-66
2022/08/17 05:17:50;;;;;;;11.10;10.60;;;;;;;35.09;100.00;100048.69;5051343;28;20037;-68
2022/08/17 05:20:16;;;;;;;11.70;11.20;;;;;;;35.00;100.00;100045.31;5051098;28;20091;-68
2022/08/17 05:22:53;;;;;;;11.43;10.93;;;;;;;35.89;100.00;100044.13;5050910;28;20032;-68
2022/08/17 05:25:31;;;;;;;11.40;10.90;;;;;;;34.62;100.00;100049.28;5051096;28;20385;-68
2022/08/17 05:27:57;;;;;;;11.32;10.82;;;;;;;35.43;100.00;100055.59;5055259;28;20021;-68
2022/08/17 05:30:23;;;;;;;12.23;11.70;;;;;;;36.17;97.46;100052.34;5054186;28;20439;-67
2022/08/17 05:33:03;;;;;;;11.80;11.30;;;;;;;36.68;96.19;100052.34;5055238;28;20044;-67
2022/08/17 05:35:30;;;;;;;11.80;11.30;;;;;;;35.40;99.21;100052.69;5054431;28;20060;-68
2022/08/17 05:37:56;;;;;;;11.70;11.20;;;;;;;34.38;100.00;100056.78;5054382;28;20064;-68
2022/08/17 05:40:24;;;;;;;11.73;11.23;;;;;;;31.77;100.00;100052.63;5054324;28;20496;-66
2022/08/17 05:42:51;;;;;;;11.48;10.98;;;;;;;30.99;100.00;100046.41;5054106;28;20489;-68
2022/08/17 05:45:19;;;;;;;11.70;11.20;;;;;;;30.64;100.00;100043.66;5054289;28;20055;-68
2022/08/17 05:47:46;;;;;;;11.65;11.15;;;;;;;29.98;100.00;100049.09;5054114;28;20028;-68
2022/08/17 05:50:30;;;;;;;12.60;12.00;;;;;;;29.80;100.00;100054.78;5054021;28;20021;-68
2022/08/17 05:53:10;;;;;;;11.75;11.25;;;;;;;29.40;100.00;100058.25;5053153;28;20037;-68
2022/08/17 05:56:02;;;;;;;12.65;12.05;;;;;;;28.46;100.00;100058.19;5053488;28;20086;-68
2022/08/17 05:58:53;;;;;;;12.30;11.70;;;;;;;29.06;100.00;100056.06;5041892;28;20033;-68
2022/08/17 06:01:38;;;;;;;12.18;11.63;;;;;;;28.46;100.00;100053.56;5061701;28;20055;-68
2022/08/17 06:04:18;;;;;;;12.25;11.65;;;;;;;28.67;100.00;100061.31;5053269;28;20423;-68
2022/08/17 06:06:55;;;;;;;12.23;11.63;;;;;;;28.80;100.00;100061.28;5051637;28;20035;-68
2022/08/17 06:09:20;;;;;;;13.20;12.60;;;;;;;30.54;100.00;100055.69;5040289;28;20476;-68
2022/08/17 06:11:54;;;;;;;12.73;12.13;;;;;;;34.29;100.00;100065.13;5052849;28;20066;-68
2022/08/17 06:14:44;;;;;;;12.20;11.60;;;;;;;34.50;100.00;100070.53;5052691;28;20526;-68
2022/08/17 06:17:15;;;;;;;11.85;11.35;;;;;;;33.61;100.00;100062.06;5048343;28;20745;-68
2022/08/17 06:19:54;;;;;;;11.45;10.95;;;;;;;34.17;100.00;100062.41;5051776;28;20112;-68
2022/08/17 06:22:24;;;;;;;11.85;11.35;;;;;;;35.29;99.57;100052.41;5053477;28;20039;-69
2022/08/17 06:24:59;;;;;;;11.80;11.30;;;;;;;35.47;97.66;100046.59;5052054;28;20033;-67
2022/08/17 06:27:37;;;;;;;11.65;11.15;;;;;;;36.09;93.46;100051.38;5053542;28;20021;-68
2022/08/17 06:30:08;;;;;;;12.15;11.65;;;;;;;35.31;94.91;100050.09;5059554;28;20033;-67
2022/08/17 06:32:36;;;;;;;12.77;12.18;;;;;;;33.64;100.00;100050.38;5048426;28;20523;-69
2022/08/17 06:35:06;;;;;;;12.38;11.77;;;;;;;33.37;100.00;100047.09;5039134;28;20028;-66
2022/08/17 06:37:51;;;;;;;12.38;11.77;;;;;;;31.35;100.00;100046.91;5049475;28;20061;-66
2022/08/17 06:40:44;;;;;;;12.70;12.10;;;;;;;31.46;100.00;100047.38;5047140;28;20096;-66
2022/08/17 06:43:38;;;;;;;12.57;11.98;;;;;;;30.66;100.00;100040.59;5045315;28;20044;-65
2022/08/17 06:46:10;;;;;;;12.80;12.20;;;;;;;30.72;100.00;100036.59;5048842;28;20079;-67
2022/08/17 06:48:38;;;;;;;13.73;13.02;;;;;;;31.36;100.00;100039.47;5048803;28;20060;-69
2022/08/17 06:51:17;;;;;;;14.30;13.60;;;;;;;30.81;100.00;100040.94;5050130;28;20045;-68
2022/08/17 06:53:44;;;;;;;12.98;12.38;;;;;;;30.81;100.00;100043.69;5052559;28;20028;-69
2022/08/17 06:56:12;;;;;;;12.95;12.35;;;;;;;29.90;100.00;100035.38;5048890;28;20035;-70
2022/08/17 06:58:42;;;;;;;13.77;13.07;;;;;;;30.59;100.00;100034.78;5049555;28;20029;-68
2022/08/17 07:01:14;;;;;;;12.05;11.50;;;;;;;30.21;100.00;100040.84;5059746;28;20069;-68
2022/08/17 07:04:04;;;;;;;14.10;13.40;;;;;;;29.76;100.00;100045.63;5047001;28;20112;-66
2022/08/17 07:06:38;;;;;;;13.57;12.88;;;;;;;29.08;100.00;100042.09;5053079;28;20024;-68
2022/08/17 07:09:49;;;;;;;13.30;12.63;;;;;;;28.51;100.00;100042.53;5057783;28;20037;-69
2022/08/17 07:12:21;;;;;;;13.05;12.45;;;;;;;29.21;100.00;100052.16;5007736;28;20045;-69
2022/08/17 07:15:03;;;;;;;13.98;13.27;;;;;;;29.06;100.00;100039.66;5046639;28;20060;-70
2022/08/17 07:17:28;;;;;;;13.30;12.63;;;;;;;29.31;100.00;100042.91;5052638;28;20502;-68
2022/08/17 07:20:04;;;;;;;13.35;12.70;;;;;;;28.73;100.00;100047.25;5048213;28;20104;-68
2022/08/17 07:22:47;;;;;;;13.63;12.93;;;;;;;29.04;100.00;100047.38;5048531;28;20021;-67
2022/08/17 07:25:18;;;;;;;13.53;12.83;;;;;;;28.71;100.00;100049.44;5050162;28;20028;-68
2022/08/17 07:27:52;;;;;;;13.18;12.55;;;;;;;28.68;100.00;100046.53;5052798;28;20377;-68
2022/08/17 07:30:24;;;;;;;13.23;12.57;;;;;;;28.57;100.00;100045.94;5051147;28;20492;-66
2022/08/17 07:32:57;;;;;;;13.07;12.45;;;;;;;28.65;100.00;100047.16;5058958;28;20032;-67
2022/08/17 07:35:29;;;;;;;12.57;11.98;;;;;;;28.57;100.00;100043.22;5049509;28;20107;-67
2022/08/17 07:38:14;;;;;;;13.30;12.60;;;;;;;29.16;100.00;100046.81;5042747;28;20082;-68
2022/08/17 07:41:03;;;;;;;13.40;12.70;;;;;;;29.23;100.00;100052.63;5035327;28;20154;-67
2022/08/17 07:43:40;;;;;;;14.57;13.80;;;;;;;28.90;100.00;100058.34;5048331;28;20024;-70
2022/08/17 07:49:08;;;;;;;13.10;12.50;;;;;;;28.43;100.00;100061.56;5048164;28;20617;-68
2022/08/17 07:51:44;;;;;;;13.68;12.98;;;;;;;28.46;100.00;100066.38;5037607;28;20029;-68
2022/08/17 07:54:21;;;;;;;12.65;12.05;;;;;;;28.62;100.00;100067.66;5047533;28;20404;-68
2022/08/17 07:57:18;;;;;;;13.68;12.98;;;;;;;28.52;100.00;100065.16;5047998;28;20111;-70
2022/08/17 07:59:59;;;;;;;13.60;12.90;;;;;;;29.02;100.00;100074.19;5029197;28;20048;-68
2022/08/17 08:02:29;;;;;;;13.07;12.48;;;;;;;28.56;100.00;100074.34;5055215;28;20024;-69
2022/08/17 08:05:21;;;;;;;13.40;12.70;;;;;;;28.32;100.00;100078.13;5034152;28;20025;-68
2022/08/17 08:07:46;;;;;;;12.93;12.32;;;;;;;28.86;100.00;100079.13;5044331;28;20032;-69
2022/08/17 08:10:28;;;;;;;12.45;11.85;;;;;;;29.80;100.00;100082.94;5044065;28;20028;-69
2022/08/17 08:13:23;;;;;;;12.88;12.27;;;;;;;28.96;100.00;100080.06;5047748;28;20077;-69
2022/08/17 08:15:54;;;;;;;13.55;12.85;;;;;;;29.48;100.00;100081.28;5044892;28;20044;-68
2022/08/17 08:18:29;;;;;;;12.52;11.93;;;;;;;30.17;100.00;100080.88;5044762;28;20030;-69
2022/08/17 08:21:03;;;;;;;12.73;12.13;;;;;;;29.76;100.00;100073.75;5042069;28;20553;-68
2022/08/17 08:23:51;;;;;;;13.35;12.73;;;;;;;31.79;100.00;100080.53;5053276;28;20028;-69
2022/08/17 08:26:30;;;;;;;13.13;12.52;;;;;;;32.44;100.00;100073.00;5044865;28;20083;-68
2022/08/17 08:29:08;;;;;;;13.18;12.57;;;;;;;33.78;100.00;100076.44;5045779;28;20403;-68
2022/08/17 08:31:52;;;;;;;12.93;12.32;;;;;;;32.64;100.00;100072.25;5041653;28;20297;-68
2022/08/17 08:34:26;;;;;;;13.07;12.48;;;;;;;33.46;100.00;100071.78;5047892;28;20027;-67
2022/08/17 08:37:03;;;;;;;12.80;12.20;;;;;;;33.92;100.00;100075.34;5051029;28;20400;-67
2022/08/17 08:39:53;;;;;;;12.27;11.68;;;;;;;34.57;100.00;100073.53;5042211;28;20022;-67
2022/08/17 08:42:57;;;;;;;12.75;12.15;;;;;;;32.78;100.00;100057.47;5043926;28;20452;-67
2022/08/17 08:45:29;;;;;;;12.33;11.73;;;;;;;31.76;100.00;100055.69;5040375;28;20141;-68
2022/08/17 08:48:09;;;;;;;12.68;12.07;;;;;;;33.00;100.00;100057.16;5046718;28;20254;-68
2022/08/17 08:50:47;;;;;;;12.52;11.93;;;;;;;34.21;100.00;100069.63;5047206;28;20116;-68
2022/08/17 08:53:32;;;;;;;12.32;11.73;;;;;;;35.01;99.52;100059.88;5042041;28;20029;-68
2022/08/17 08:56:10;;;;;;;12.75;12.15;;;;;;;34.02;100.00;100069.41;5046378;28;20506;-68
2022/08/17 08:59:14;;;;;;;12.43;11.82;;;;;;;32.52;100.00;100077.66;5037546;28;20025;-68
2022/08/17 09:02:04;;;;;;;11.77;11.27;;;;;;;31.34;100.00;100063.69;5043541;28;20072;-68
2022/08/17 09:05:06;;;;;;;12.82;12.23;;;;;;;32.68;100.00;100058.63;5053841;28;20035;-68
2022/08/17 09:07:46;;;;;;;13.00;12.40;;;;;;;34.62;100.00;100070.53;5060690;28;20086;-67
2022/08/17 09:10:28;;;;;;;13.88;13.18;;;;;;;34.82;100.00;100068.78;5040218;28;20113;-69
2022/08/17 09:13:14;;;;;;;13.15;12.55;;;;;;;32.89;100.00;100059.47;5053581;28;20028;-68
2022/08/17 09:15:51;;;;;;;12.85;12.25;;;;;;;33.74;100.00;100055.47;5056597;28;20020;-69
2022/08/17 09:18:29;;;;;;;12.48;11.88;;;;;;;33.76;100.00;100064.16;5072165;28;20120;-68
2022/08/17 09:20:58;;;;;;;12.38;11.77;;;;;;;32.90;100.00;100063.84;5060614;28;20506;-66
2022/08/17 09:23:43;;;;;;;13.05;12.45;;;;;;;31.51;100.00;100063.66;5052298;28;20040;-69
2022/08/17 09:26:22;;;;;;;12.52;11.93;;;;;;;31.30;100.00;100057.25;5053668;28;20031;-68
2022/08/17 09:29:00;;;;;;;12.73;12.13;;;;;;;30.95;100.00;100072.88;5051330;28;20157;-69
2022/08/17 09:31:38;;;;;;;13.50;12.80;;;;;;;30.66;100.00;100063.34;5055697;28;20097;-70
2022/08/17 09:34:14;;;;;;;12.88;12.27;;;;;;;30.14;100.00;100074.13;5053779;28;20484;-69
2022/08/17 09:36:58;;;;;;;13.20;12.57;;;;;;;29.76;100.00;100079.22;5049313;28;20054;-68
2022/08/17 09:39:33;;;;;;;12.43;11.82;;;;;;;29.88;100.00;100075.91;5050725;28;20514;-69
2022/08/17 09:42:24;;;;;;;12.85;12.25;;;;;;;29.45;100.00;100074.53;5052167;28;20060;-69
2022/08/17 09:45:00;;;;;;;16.05;15.15;;;;;;;29.26;100.00;100073.09;5049438;28;20225;-68
2022/08/17 09:48:04;;;;;;;12.35;11.75;;;;;;;29.31;100.00;100081.16;5051094;28;20031;-70
2022/08/17 09:50:48;;;;;;;12.13;11.52;;;;;;;29.31;100.00;100079.25;5028167;28;20040;-69
2022/08/17 09:53:14;;;;;;;13.02;12.43;;;;;;;29.51;100.00;100090.78;5050274;28;20056;-68
2022/08/17 09:55:56;;;;;;;12.70;12.10;;;;;;;30.03;100.00;100080.16;5044289;28;20063;-69
2022/08/17 09:58:46;;;;;;;12.35;11.75;;;;;;;31.31;100.00;100086.25;5047155;28;20109;-69
2022/08/17 10:01:35;;;;;;;12.18;11.60;;;;;;;31.24;100.00;100083.22;5055015;28;20814;-68
2022/08/17 10:04:38;;;;;;;12.98;12.38;;;;;;;30.89;100.00;100085.09;5049585;28;20511;-70
2022/08/17 10:07:03;;;;;;;12.52;11.93;;;;;;;31.56;100.00;100081.84;5040880;28;20017;-69
2022/08/17 10:09:40;;;;;;;12.65;12.05;;;;;;;31.59;100.00;100079.28;5050031;28;20051;-69
2022/08/17 10:12:18;;;;;;;12.68;12.07;;;;;;;31.08;100.00;100069.16;5039159;28;20024;-69
2022/08/17 10:14:59;;;;;;;12.55;11.95;;;;;;;30.86;100.00;100080.28;5045859;28;20032;-69
2022/08/17 10:17:36;;;;;;;12.77;12.18;;;;;;;30.49;100.00;100071.50;5049525;28;20041;-68
2022/08/17 10:20:09;;;;;;;13.18;12.52;;;;;;;30.30;100.00;100074.50;5048721;28;20111;-68
2022/08/17 10:28:21;;;;;;;13.52;12.82;;;;;;;30.34;100.00;100050.84;5050030;28;20036;-69
2022/08/17 10:30:55;;;;;;;13.63;12.93;;;;;;;30.26;100.00;100049.69;5048636;28;20125;-68
2022/08/17 10:33:26;;;;;;;13.70;13.00;;;;;;;30.41;100.00;100056.66;5067898;28;20792;-67
2022/08/17 10:36:05;;;;;;;12.23;11.63;;;;;;;30.76;100.00;100048.50;5051351;28;20025;-68
2022/08/17 10:38:57;;;;;;;12.98;12.38;;;;;;;31.21;100.00;100053.66;5052409;28;20021;-67
2022/08/17 10:41:25;;;;;;;12.88;12.27;;;;;;;30.79;100.00;100058.84;5039515;28;20108;-67
2022/08/17 10:44:09;;;;;;;13.43;12.73;;;;;;;30.69;100.00;100050.91;5049679;28;20020;-69
2022/08/17 10:47:07;;;;;;;12.30;11.70;;;;;;;31.39;100.00;100046.25;5050027;28;20116;-69
2022/08/17 10:49:43;;;;;;;12.43;11.82;;;;;;;31.49;100.00;100041.22;5053791;28;20037;-67
2022/08/17 10:52:26;;;;;;;12.40;11.80;;;;;;;31.02;100.00;100043.06;5048780;28;20024;-69
2022/08/17 10:54:55;;;;;;;12.93;12.32;;;;;;;31.06;100.00;100044.00;5048751;28;20025;-69
2022/08/17 10:57:32;;;;;;;13.02;12.43;;;;;;;31.32;100.00;100041.28;5052611;28;20484;-67
2022/08/17 11:00:13;;;;;;;12.63;12.02;;;;;;;31.13;100.00;100030.63;5071251;28;20036;-68
2022/08/17 11:03:18;;;;;;;13.15;12.55;;;;;;;31.45;100.00;100029.31;5051816;28;20110;-67
2022/08/17 11:06:20;;;;;;;13.25;12.60;;;;;;;31.85;100.00;100027.09;5035510;28;20075;-69
2022/08/17 11:09:25;;;;;;;12.48;11.88;;;;;;;31.90;100.00;100026.13;5047258;28;20114;-68
2022/08/17 11:12:05;;;;;;;;;;;;;;;31.09;100.00;100033.22;5048626;28;20712;-68
2022/08/17 11:15:02;;;;;;;12.75;12.15;;;;;;;31.26;100.00;100032.41;5052854;28;19917;-69
2022/08/17 11:18:00;;;;;;;12.82;12.23;;;;;;;30.80;100.00;100033.06;5048069;28;20029;-69
2022/08/17 11:21:19;;;;;;;12.73;12.13;;;;;;;30.52;100.00;100027.84;5036780;28;20111;-67
2022/08/17 11:23:45;;;;;;;12.23;11.63;;;;;;;31.10;100.00;100031.28;5044581;28;20037;-67
2022/08/17 11:26:29;;;;;;;12.45;11.85;;;;;;;31.29;100.00;100022.75;5050151;28;20376;-65
2022/08/17 11:29:02;;;;;;;13.70;13.00;;;;;;;30.92;100.00;100030.50;5048059;28;20032;-66
2022/08/17 11:31:41;;;;;;;12.83;12.23;;;;;;;31.58;100.00;100036.56;5056325;28;20051;-66
2022/08/17 11:34:29;;;;;;;12.65;12.05;;;;;;;31.67;100.00;100033.78;5059343;28;20029;-66
2022/08/17 11:37:12;;;;;;;12.73;12.13;;;;;;;31.68;100.00;100034.59;5049869;28;20036;-65
2022/08/17 11:40:05;;;;;;;11.77;11.27;;;;;;;31.97;100.00;100039.34;5048864;28;20405;-67
2022/08/17 11:42:41;;;;;;;12.70;12.10;;;;;;;32.47;100.00;100036.69;5039376;28;20036;-66
2022/08/17 11:45:06;;;;;;;12.73;12.13;;;;;;;31.34;100.00;100037.06;5050888;28;20238;-66
2022/08/17 11:53:37;;;;;;;12.32;11.73;;;;;;;31.33;100.00;100037.41;5046988;28;20123;-66
2022/08/17 11:56:10;;;;;;;13.05;12.45;;;;;;;31.57;100.00;100032.19;5047057;28;20028;-65
2022/08/17 11:58:41;;;;;;;13.70;13.00;;;;;;;30.32;100.00;100028.44;5050686;28;20031;-66
2022/08/17 12:01:09;;;;;;;13.52;12.85;;;;;;;32.00;100.00;100028.50;5047471;28;20039;-68